Terminal Aerodrome Forecast
Issued by NWS

Home | Current Version | Previous Version | Graphics & Text | Print | Product List | Glossary On
Versions: 1 2 3 4 5 6 7 8 9 10 11 12 13 14 15 16 17 18 19
000
FTUS43 KICT 131722
TAFSLN
TAF
KSLN 131722Z 1318/1418 00000KT P6SM OVC080
     FM140100 VRB03KT P6SM OVC070
     FM140400 15005KT P6SM VCSH OVC070
     FM141100 18008KT P6SM OVC050=

USA.gov is the U.S. government's official web portal to all federal, state and local government web resources and services.